Aviation Digital Data Service (ADDS)

Output produced by METARs form (0243 UTC 29 November 2020)
found at http://www.aviationweather.gov/metar/data/
 
METAR text: WAOO 290230Z 33004KT 5000 R10/1400 R28/P2000 RA SCT015 27/25 Q1009
Conditions at: WAOO (SYAMSUDIN NOOR , ID) observed 0230 UTC 29 November 2020
Temperature: 27.0°C (81°F)
Dewpoint: 25.0°C (77°F) [RH = 89%]
Pressure (altimeter): 29.79 inches Hg (1009.0 mb)
Winds: from the NNW (330 degrees) at 5 MPH (4 knots; 2.1 m/s)
Visibility: 3 miles ( 5 km)
Ceiling: at least 12,000 feet AGL
Clouds: scattered clouds at 1500 feet AGL
Weather: RA  (moderate rain)

METAR text: WAOO 290200Z 32004KT 9999 RA BKN012 26/25 Q1010
Conditions at: WAOO (SYAMSUDIN NOOR , ID) observed 0200 UTC 29 November 2020
Temperature: 26.0°C (79°F)
Dewpoint: 25.0°C (77°F) [RH = 94%]
Pressure (altimeter): 29.82 inches Hg (1010.0 mb)
Winds: from the NW (320 degrees) at 5 MPH (4 knots; 2.1 m/s)
Visibility: 6 or more miles (10+ km)
Ceiling: 1200 feet AGL
Clouds: broken clouds at 1200 feet AGL
Weather: RA  (moderate rain)

METAR text: WAOO 290130Z 29002KT 9999 SCT012 26/25 Q1010
Conditions at: WAOO (SYAMSUDIN NOOR , ID) observed 0130 UTC 29 November 2020
Temperature: 26.0°C (79°F)
Dewpoint: 25.0°C (77°F) [RH = 94%]
Pressure (altimeter): 29.82 inches Hg (1010.0 mb)
Winds: from the WNW (290 degrees) at 2 MPH (2 knots; 1.0 m/s)
Visibility: 6 or more miles (10+ km)
Ceiling: at least 12,000 feet AGL
Clouds: scattered clouds at 1200 feet AGL
Weather: no significant weather observed at this time

METAR text: WAOO 290100Z 28002KT 8000 RA SCT018 25/24 Q1010
Conditions at: WAOO (SYAMSUDIN NOOR , ID) observed 0100 UTC 29 November 2020
Temperature: 25.0°C (77°F)
Dewpoint: 24.0°C (75°F) [RH = 94%]
Pressure (altimeter): 29.82 inches Hg (1010.0 mb)
Winds: from the W (280 degrees) at 2 MPH (2 knots; 1.0 m/s)
Visibility: 5 miles ( 8 km)
Ceiling: at least 12,000 feet AGL
Clouds: scattered clouds at 1800 feet AGL
Weather: RA  (moderate rain)

METAR text: WAOO 290030Z 17002KT 6000 RA SCT018 25/24 Q1009
Conditions at: WAOO (SYAMSUDIN NOOR , ID) observed 0030 UTC 29 November 2020
Temperature: 25.0°C (77°F)
Dewpoint: 24.0°C (75°F) [RH = 94%]
Pressure (altimeter): 29.79 inches Hg (1009.0 mb)
Winds: from the S (170 degrees) at 2 MPH (2 knots; 1.0 m/s)
Visibility: 4 miles ( 6 km)
Ceiling: at least 12,000 feet AGL
Clouds: scattered clouds at 1800 feet AGL
Weather: RA  (moderate rain)

METAR text: WAOO 290000Z 22002KT 6000 RA SCT014 25/24 Q1009
Conditions at: WAOO (SYAMSUDIN NOOR , ID) observed 0000 UTC 29 November 2020
Temperature: 25.0°C (77°F)
Dewpoint: 24.0°C (75°F) [RH = 94%]
Pressure (altimeter): 29.79 inches Hg (1009.0 mb)
Winds: from the SW (220 degrees) at 2 MPH (2 knots; 1.0 m/s)
Visibility: 4 miles ( 6 km)
Ceiling: at least 12,000 feet AGL
Clouds: scattered clouds at 1400 feet AGL
Weather: RA  (moderate rain)

METAR text: WAOO 282330Z 00000KT 8000 RA SCT016 25/24 Q1009
Conditions at: WAOO (SYAMSUDIN NOOR , ID) observed 2330 UTC 28 November 2020
Temperature: 25.0°C (77°F)
Dewpoint: 24.0°C (75°F) [RH = 94%]
Pressure (altimeter): 29.79 inches Hg (1009.0 mb)
Winds: calm
Visibility: 5 miles ( 8 km)
Ceiling: at least 12,000 feet AGL
Clouds: scattered clouds at 1600 feet AGL
Weather: RA  (moderate rain)

METAR text: WAOO 282300Z 14002KT 5000 RA SCT016 25/24 Q1008
Conditions at: WAOO (SYAMSUDIN NOOR , ID) observed 2300 UTC 28 November 2020
Temperature: 25.0°C (77°F)
Dewpoint: 24.0°C (75°F) [RH = 94%]
Pressure (altimeter): 29.76 inches Hg (1008.0 mb)
Winds: from the SE (140 degrees) at 2 MPH (2 knots; 1.0 m/s)
Visibility: 3 miles ( 5 km)
Ceiling: at least 12,000 feet AGL
Clouds: scattered clouds at 1600 feet AGL
Weather: RA  (moderate rain)

METAR text: WAOO 282230Z 16004KT 3000 RA SCT016 25/25 Q1008
Conditions at: WAOO (SYAMSUDIN NOOR , ID) observed 2230 UTC 28 November 2020
Temperature: 25.0°C (77°F)
Dewpoint: 25.0°C (77°F) [RH = 100%]
Pressure (altimeter): 29.76 inches Hg (1008.0 mb)
Winds: from the SSE (160 degrees) at 5 MPH (4 knots; 2.1 m/s)
Visibility: 1.86 miles (2.99 km)
Ceiling: at least 12,000 feet AGL
Clouds: scattered clouds at 1600 feet AGL
Weather: RA  (moderate rain)

METAR text: WAOO 282200Z AUTO 16004KT 140V200 4100 BR FEW002 SCT012 BKN018 25/25 Q1008
Conditions at: WAOO (SYAMSUDIN NOOR , ID) observed 2200 UTC 28 November 2020
Temperature: 25.0°C (77°F)
Dewpoint: 25.0°C (77°F) [RH = 100%]
Pressure (altimeter): 29.76 inches Hg (1008.0 mb)
Winds: from the SSE (160 degrees) at 5 MPH (4 knots; 2.1 m/s)
Visibility: 2.55 miles (4.10 km)
Ceiling: 1800 feet AGL
Clouds: few clouds at 200 feet AGL
scattered clouds at 1200 feet AGL
broken clouds at 1800 feet AGL
Weather: BR  (mist)

METAR text: WAOO 282130Z AUTO 16003KT 110V190 3800 BR SCT020 BKN050 OVC065 25/25 Q1008
Conditions at: WAOO (SYAMSUDIN NOOR , ID) observed 2130 UTC 28 November 2020
Temperature: 25.0°C (77°F)
Dewpoint: 25.0°C (77°F) [RH = 100%]
Pressure (altimeter): 29.76 inches Hg (1008.0 mb)
Winds: from the SSE (160 degrees) at 3 MPH (3 knots; 1.5 m/s)
Visibility: 2.36 miles (3.80 km)
Ceiling: 5000 feet AGL
Clouds: scattered clouds at 2000 feet AGL
broken clouds at 5000 feet AGL
overcast cloud deck at 6500 feet AGL
Weather: BR  (mist)

METAR text: WAOO 282100Z AUTO 21005KT 180V240 5000 FEW005 SCT008 BKN013 25/25 Q1007
Conditions at: WAOO (SYAMSUDIN NOOR , ID) observed 2100 UTC 28 November 2020
Temperature: 25.0°C (77°F)
Dewpoint: 25.0°C (77°F) [RH = 100%]
Pressure (altimeter): 29.73 inches Hg (1007.0 mb)
Winds: from the SSW (210 degrees) at 6 MPH (5 knots; 2.6 m/s)
Visibility: 3 miles ( 5 km)
Ceiling: 1300 feet AGL
Clouds: few clouds at 500 feet AGL
scattered clouds at 800 feet AGL
broken clouds at 1300 feet AGL
Weather: no significant weather observed at this time

METAR text: WAOO 282030Z AUTO 16002KT 4500 BR SCT013 BKN029 25/25 Q1007
Conditions at: WAOO (SYAMSUDIN NOOR , ID) observed 2030 UTC 28 November 2020
Temperature: 25.0°C (77°F)
Dewpoint: 25.0°C (77°F) [RH = 100%]
Pressure (altimeter): 29.73 inches Hg (1007.0 mb)
Winds: from the SSE (160 degrees) at 2 MPH (2 knots; 1.0 m/s)
Visibility: 2.80 miles (4.51 km)
Ceiling: 2900 feet AGL
Clouds: scattered clouds at 1300 feet AGL
broken clouds at 2900 feet AGL
Weather: BR  (mist)

METAR text: WAOO 282000Z AUTO 17001KT 5000 BKN015 25/25 Q1007
Conditions at: WAOO (SYAMSUDIN NOOR , ID) observed 2000 UTC 28 November 2020
Temperature: 25.0°C (77°F)
Dewpoint: 25.0°C (77°F) [RH = 100%]
Pressure (altimeter): 29.73 inches Hg (1007.0 mb)
Winds: from the S (170 degrees) at 1 MPH (1 knots; 0.5 m/s)
Visibility: 3 miles ( 5 km)
Ceiling: 1500 feet AGL
Clouds: broken clouds at 1500 feet AGL
Weather: no significant weather observed at this time

METAR text: WAOO 281900Z AUTO VRB02KT 7000 OVC016 26/26 Q1007
Conditions at: WAOO (SYAMSUDIN NOOR , ID) observed 1900 UTC 28 November 2020
Temperature: 26.0°C (79°F)
Dewpoint: 26.0°C (79°F) [RH = 100%]
Pressure (altimeter): 29.73 inches Hg (1007.0 mb)
Winds: variable direction winds at 2 MPH (2 knots; 1.0 m/s)
Visibility: 4 miles ( 7 km)
Ceiling: 1600 feet AGL
Clouds: overcast cloud deck at 1600 feet AGL
Weather: no significant weather observed at this time

METAR text: WAOO 281830Z AUTO 05004KT 8000 VCTS BKN018 OVC026 26/26 Q1007
Conditions at: WAOO (SYAMSUDIN NOOR , ID) observed 1830 UTC 28 November 2020
Temperature: 26.0°C (79°F)
Dewpoint: 26.0°C (79°F) [RH = 100%]
Pressure (altimeter): 29.73 inches Hg (1007.0 mb)
Winds: from the NE (50 degrees) at 5 MPH (4 knots; 2.1 m/s)
Visibility: 5 miles ( 8 km)
Ceiling: 1800 feet AGL
Clouds: broken clouds at 1800 feet AGL
overcast cloud deck at 2600 feet AGL
Weather: VCTS  (thunderstorm in vicinity)

METAR text: WAOO 281800Z AUTO 05004KT 9999 TS OVC019 26/25 Q1008
Conditions at: WAOO (SYAMSUDIN NOOR , ID) observed 1800 UTC 28 November 2020
Temperature: 26.0°C (79°F)
Dewpoint: 25.0°C (77°F) [RH = 94%]
Pressure (altimeter): 29.76 inches Hg (1008.0 mb)
Winds: from the NE (50 degrees) at 5 MPH (4 knots; 2.1 m/s)
Visibility: 6 or more miles (10+ km)
Ceiling: 1900 feet AGL
Clouds: overcast cloud deck at 1900 feet AGL
Weather: TS  (thunderstorm)

METAR text: WAOO 281730Z AUTO 04003KT 9000 BKN017 BKN024 OVC031 26/25 Q1008
Conditions at: WAOO (SYAMSUDIN NOOR , ID) observed 1730 UTC 28 November 2020
Temperature: 26.0°C (79°F)
Dewpoint: 25.0°C (77°F) [RH = 94%]
Pressure (altimeter): 29.76 inches Hg (1008.0 mb)
Winds: from the NE (40 degrees) at 3 MPH (3 knots; 1.5 m/s)
Visibility: 6 miles ( 9 km)
Ceiling: 1700 feet AGL
Clouds: broken clouds at 1700 feet AGL
broken clouds at 2400 feet AGL
overcast cloud deck at 3100 feet AGL
Weather: no significant weather observed at this time

METAR text: WAOO 281700Z AUTO 02003KT 340V050 9999 OVC017 26/26 Q1008
Conditions at: WAOO (SYAMSUDIN NOOR , ID) observed 1700 UTC 28 November 2020
Temperature: 26.0°C (79°F)
Dewpoint: 26.0°C (79°F) [RH = 100%]
Pressure (altimeter): 29.76 inches Hg (1008.0 mb)
Winds: from the NNE (20 degrees) at 3 MPH (3 knots; 1.5 m/s)
Visibility: 6 or more miles (10+ km)
Ceiling: 1700 feet AGL
Clouds: overcast cloud deck at 1700 feet AGL
Weather: no significant weather observed at this time

METAR text: WAOO 281630Z AUTO 04004KT 020V080 9000 OVC019 26/26 Q1009
Conditions at: WAOO (SYAMSUDIN NOOR , ID) observed 1630 UTC 28 November 2020
Temperature: 26.0°C (79°F)
Dewpoint: 26.0°C (79°F) [RH = 100%]
Pressure (altimeter): 29.79 inches Hg (1009.0 mb)
Winds: from the NE (40 degrees) at 5 MPH (4 knots; 2.1 m/s)
Visibility: 6 miles ( 9 km)
Ceiling: 1900 feet AGL
Clouds: overcast cloud deck at 1900 feet AGL
Weather: no significant weather observed at this time

METAR text: WAOO 281600Z AUTO 02003KT 9999 SCT020 BKN028 OVC060 26/26 Q1009
Conditions at: WAOO (SYAMSUDIN NOOR , ID) observed 1600 UTC 28 November 2020
Temperature: 26.0°C (79°F)
Dewpoint: 26.0°C (79°F) [RH = 100%]
Pressure (altimeter): 29.79 inches Hg (1009.0 mb)
Winds: from the NNE (20 degrees) at 3 MPH (3 knots; 1.5 m/s)
Visibility: 6 or more miles (10+ km)
Ceiling: 2800 feet AGL
Clouds: scattered clouds at 2000 feet AGL
broken clouds at 2800 feet AGL
overcast cloud deck at 6000 feet AGL
Weather: no significant weather observed at this time

METAR text: WAOO 281530Z AUTO 03004KT 9000 FEW020 SCT026 BKN036 27/26 Q1009
Conditions at: WAOO (SYAMSUDIN NOOR , ID) observed 1530 UTC 28 November 2020
Temperature: 27.0°C (81°F)
Dewpoint: 26.0°C (79°F) [RH = 94%]
Pressure (altimeter): 29.79 inches Hg (1009.0 mb)
Winds: from the NNE (30 degrees) at 5 MPH (4 knots; 2.1 m/s)
Visibility: 6 miles ( 9 km)
Ceiling: 3600 feet AGL
Clouds: few clouds at 2000 feet AGL
scattered clouds at 2600 feet AGL
broken clouds at 3600 feet AGL
Weather: no significant weather observed at this time

METAR text: WAOO 281500Z AUTO 02003KT 9999 BKN020 BKN031 OVC055 27/26 Q1009
Conditions at: WAOO (SYAMSUDIN NOOR , ID) observed 1500 UTC 28 November 2020
Temperature: 27.0°C (81°F)
Dewpoint: 26.0°C (79°F) [RH = 94%]
Pressure (altimeter): 29.79 inches Hg (1009.0 mb)
Winds: from the NNE (20 degrees) at 3 MPH (3 knots; 1.5 m/s)
Visibility: 6 or more miles (10+ km)
Ceiling: 2000 feet AGL
Clouds: broken clouds at 2000 feet AGL
broken clouds at 3100 feet AGL
overcast cloud deck at 5500 feet AGL
Weather: no significant weather observed at this time

METAR text: WAOO 281430Z AUTO 03002KT 9999 FEW020 BKN026 OVC055 27/26 Q1009
Conditions at: WAOO (SYAMSUDIN NOOR , ID) observed 1430 UTC 28 November 2020
Temperature: 27.0°C (81°F)
Dewpoint: 26.0°C (79°F) [RH = 94%]
Pressure (altimeter): 29.79 inches Hg (1009.0 mb)
Winds: from the NNE (30 degrees) at 2 MPH (2 knots; 1.0 m/s)
Visibility: 6 or more miles (10+ km)
Ceiling: 2600 feet AGL
Clouds: few clouds at 2000 feet AGL
broken clouds at 2600 feet AGL
overcast cloud deck at 5500 feet AGL
Weather: no significant weather observed at this time

METAR text: WAOO 281400Z AUTO 05004KT 9999 BKN021 OVC028 27/26 Q1009
Conditions at: WAOO (SYAMSUDIN NOOR , ID) observed 1400 UTC 28 November 2020
Temperature: 27.0°C (81°F)
Dewpoint: 26.0°C (79°F) [RH = 94%]
Pressure (altimeter): 29.79 inches Hg (1009.0 mb)
Winds: from the NE (50 degrees) at 5 MPH (4 knots; 2.1 m/s)
Visibility: 6 or more miles (10+ km)
Ceiling: 2100 feet AGL
Clouds: broken clouds at 2100 feet AGL
overcast cloud deck at 2800 feet AGL
Weather: no significant weather observed at this time

METAR text: WAOO 281330Z AUTO 03003KT 9999 OVC021 28/26 Q1009
Conditions at: WAOO (SYAMSUDIN NOOR , ID) observed 1330 UTC 28 November 2020
Temperature: 28.0°C (82°F)
Dewpoint: 26.0°C (79°F) [RH = 89%]
Pressure (altimeter): 29.79 inches Hg (1009.0 mb)
Winds: from the NNE (30 degrees) at 3 MPH (3 knots; 1.5 m/s)
Visibility: 6 or more miles (10+ km)
Ceiling: 2100 feet AGL
Clouds: overcast cloud deck at 2100 feet AGL
Weather: no significant weather observed at this time

METAR text: WAOO 281300Z AUTO VRB02KT 9999 OVC022 27/27 Q1009
Conditions at: WAOO (SYAMSUDIN NOOR , ID) observed 1300 UTC 28 November 2020
Temperature: 27.0°C (81°F)
Dewpoint: 27.0°C (81°F) [RH = 100%]
Pressure (altimeter): 29.79 inches Hg (1009.0 mb)
Winds: variable direction winds at 2 MPH (2 knots; 1.0 m/s)
Visibility: 6 or more miles (10+ km)
Ceiling: 2200 feet AGL
Clouds: overcast cloud deck at 2200 feet AGL
Weather: no significant weather observed at this time

METAR text: WAOO 281230Z AUTO VRB02KT 9999 OVC021 28/26 Q1008
Conditions at: WAOO (SYAMSUDIN NOOR , ID) observed 1230 UTC 28 November 2020
Temperature: 28.0°C (82°F)
Dewpoint: 26.0°C (79°F) [RH = 89%]
Pressure (altimeter): 29.76 inches Hg (1008.0 mb)
Winds: variable direction winds at 2 MPH (2 knots; 1.0 m/s)
Visibility: 6 or more miles (10+ km)
Ceiling: 2100 feet AGL
Clouds: overcast cloud deck at 2100 feet AGL
Weather: no significant weather observed at this time

METAR text: WAOO 281200Z AUTO VRB02KT 9999 OVC021 28/27 Q1008
Conditions at: WAOO (SYAMSUDIN NOOR , ID) observed 1200 UTC 28 November 2020
Temperature: 28.0°C (82°F)
Dewpoint: 27.0°C (81°F) [RH = 94%]
Pressure (altimeter): 29.76 inches Hg (1008.0 mb)
Winds: variable direction winds at 2 MPH (2 knots; 1.0 m/s)
Visibility: 6 or more miles (10+ km)
Ceiling: 2100 feet AGL
Clouds: overcast cloud deck at 2100 feet AGL
Weather: no significant weather observed at this time

METAR text: WAOO 281130Z AUTO 11001KT 9999 FEW018 BKN024 OVC030 28/26 Q1007
Conditions at: WAOO (SYAMSUDIN NOOR , ID) observed 1130 UTC 28 November 2020
Temperature: 28.0°C (82°F)
Dewpoint: 26.0°C (79°F) [RH = 89%]
Pressure (altimeter): 29.73 inches Hg (1007.0 mb)
Winds: from the ESE (110 degrees) at 1 MPH (1 knots; 0.5 m/s)
Visibility: 6 or more miles (10+ km)
Ceiling: 2400 feet AGL
Clouds: few clouds at 1800 feet AGL
broken clouds at 2400 feet AGL
overcast cloud deck at 3000 feet AGL
Weather: no significant weather observed at this time

METAR text: WAOO 281100Z AUTO VRB02KT 9999 BKN030 BKN037 OVC050 28/27 Q1006
Conditions at: WAOO (SYAMSUDIN NOOR , ID) observed 1100 UTC 28 November 2020
Temperature: 28.0°C (82°F)
Dewpoint: 27.0°C (81°F) [RH = 94%]
Pressure (altimeter): 29.70 inches Hg (1006.0 mb)
Winds: variable direction winds at 2 MPH (2 knots; 1.0 m/s)
Visibility: 6 or more miles (10+ km)
Ceiling: 3000 feet AGL
Clouds: broken clouds at 3000 feet AGL
broken clouds at 3700 feet AGL
overcast cloud deck at 5000 feet AGL
Weather: no significant weather observed at this time

METAR text: WAOO 281030Z AUTO 18001KT 9999 BKN031 OVC038 29/26 Q1006
Conditions at: WAOO (SYAMSUDIN NOOR , ID) observed 1030 UTC 28 November 2020
Temperature: 29.0°C (84°F)
Dewpoint: 26.0°C (79°F) [RH = 84%]
Pressure (altimeter): 29.70 inches Hg (1006.0 mb)
Winds: from the S (180 degrees) at 1 MPH (1 knots; 0.5 m/s)
Visibility: 6 or more miles (10+ km)
Ceiling: 3100 feet AGL
Clouds: broken clouds at 3100 feet AGL
overcast cloud deck at 3800 feet AGL
Weather: no significant weather observed at this time

METAR text: WAOO 281000Z 36003KT 9999 SCT001 30/25 Q1005 METAR
Conditions at: WAOO (SYAMSUDIN NOOR , ID) observed 1000 UTC 28 November 2020
Temperature: 30.0°C (86°F)
Dewpoint: 25.0°C (77°F) [RH = 75%]
Pressure (altimeter): 29.68 inches Hg (1005.0 mb)
Winds: from the N (360 degrees) at 3 MPH (3 knots; 1.5 m/s)
Visibility: 6 or more miles (10+ km)
Ceiling: at least 12,000 feet AGL
Clouds: scattered clouds at 100 feet AGL
Weather: no significant weather observed at this time

METAR text: WAOO 280930Z 33004KT 9999 SCT018 30/25 Q1005
Conditions at: WAOO (SYAMSUDIN NOOR , ID) observed 0930 UTC 28 November 2020
Temperature: 30.0°C (86°F)
Dewpoint: 25.0°C (77°F) [RH = 75%]
Pressure (altimeter): 29.68 inches Hg (1005.0 mb)
Winds: from the NNW (330 degrees) at 5 MPH (4 knots; 2.1 m/s)
Visibility: 6 or more miles (10+ km)
Ceiling: at least 12,000 feet AGL
Clouds: scattered clouds at 1800 feet AGL
Weather: no significant weather observed at this time

METAR text: WAOO 280900Z 35004KT 9999 SCT018 30/25 Q1005
Conditions at: WAOO (SYAMSUDIN NOOR , ID) observed 0900 UTC 28 November 2020
Temperature: 30.0°C (86°F)
Dewpoint: 25.0°C (77°F) [RH = 75%]
Pressure (altimeter): 29.68 inches Hg (1005.0 mb)
Winds: from the N (350 degrees) at 5 MPH (4 knots; 2.1 m/s)
Visibility: 6 or more miles (10+ km)
Ceiling: at least 12,000 feet AGL
Clouds: scattered clouds at 1800 feet AGL
Weather: no significant weather observed at this time

METAR text: WAOO 280830Z 01004KT 9999 SCT018 31/24 Q1005
Conditions at: WAOO (SYAMSUDIN NOOR , ID) observed 0830 UTC 28 November 2020
Temperature: 31.0°C (88°F)
Dewpoint: 24.0°C (75°F) [RH = 66%]
Pressure (altimeter): 29.68 inches Hg (1005.0 mb)
Winds: from the N (10 degrees) at 5 MPH (4 knots; 2.1 m/s)
Visibility: 6 or more miles (10+ km)
Ceiling: at least 12,000 feet AGL
Clouds: scattered clouds at 1800 feet AGL
Weather: no significant weather observed at this time

METAR text: WAOO 280800Z 35004KT 9999 SCT018 31/25 Q1006
Conditions at: WAOO (SYAMSUDIN NOOR , ID) observed 0800 UTC 28 November 2020
Temperature: 31.0°C (88°F)
Dewpoint: 25.0°C (77°F) [RH = 71%]
Pressure (altimeter): 29.70 inches Hg (1006.0 mb)
Winds: from the N (350 degrees) at 5 MPH (4 knots; 2.1 m/s)
Visibility: 6 or more miles (10+ km)
Ceiling: at least 12,000 feet AGL
Clouds: scattered clouds at 1800 feet AGL
Weather: no significant weather observed at this time

METAR text: WAOO 280730Z 32004KT 9999 SCT018 31/25 Q1006
Conditions at: WAOO (SYAMSUDIN NOOR , ID) observed 0730 UTC 28 November 2020
Temperature: 31.0°C (88°F)
Dewpoint: 25.0°C (77°F) [RH = 71%]
Pressure (altimeter): 29.70 inches Hg (1006.0 mb)
Winds: from the NW (320 degrees) at 5 MPH (4 knots; 2.1 m/s)
Visibility: 6 or more miles (10+ km)
Ceiling: at least 12,000 feet AGL
Clouds: scattered clouds at 1800 feet AGL
Weather: no significant weather observed at this time

METAR text: WAOO 280700Z 32005KT 9999 SCT016 31/24 Q1006
Conditions at: WAOO (SYAMSUDIN NOOR , ID) observed 0700 UTC 28 November 2020
Temperature: 31.0°C (88°F)
Dewpoint: 24.0°C (75°F) [RH = 66%]
Pressure (altimeter): 29.70 inches Hg (1006.0 mb)
Winds: from the NW (320 degrees) at 6 MPH (5 knots; 2.6 m/s)
Visibility: 6 or more miles (10+ km)
Ceiling: at least 12,000 feet AGL
Clouds: scattered clouds at 1600 feet AGL
Weather: no significant weather observed at this time

METAR text: WAOO 280630Z 32007KT 8000 SCT017 31/25 Q1007
Conditions at: WAOO (SYAMSUDIN NOOR , ID) observed 0630 UTC 28 November 2020
Temperature: 31.0°C (88°F)
Dewpoint: 25.0°C (77°F) [RH = 71%]
Pressure (altimeter): 29.73 inches Hg (1007.0 mb)
Winds: from the NW (320 degrees) at 8 MPH (7 knots; 3.6 m/s)
Visibility: 5 miles ( 8 km)
Ceiling: at least 12,000 feet AGL
Clouds: scattered clouds at 1700 feet AGL
Weather: no significant weather observed at this time

METAR text: WAOO 280600Z 36005KT 9999 SCT017 30/25 Q1007
Conditions at: WAOO (SYAMSUDIN NOOR , ID) observed 0600 UTC 28 November 2020
Temperature: 30.0°C (86°F)
Dewpoint: 25.0°C (77°F) [RH = 75%]
Pressure (altimeter): 29.73 inches Hg (1007.0 mb)
Winds: from the N (360 degrees) at 6 MPH (5 knots; 2.6 m/s)
Visibility: 6 or more miles (10+ km)
Ceiling: at least 12,000 feet AGL
Clouds: scattered clouds at 1700 feet AGL
Weather: no significant weather observed at this time

METAR text: WAOO 280530Z 01007KT 330V050 9999 SCT015 29/25 Q1008
Conditions at: WAOO (SYAMSUDIN NOOR , ID) observed 0530 UTC 28 November 2020
Temperature: 29.0°C (84°F)
Dewpoint: 25.0°C (77°F) [RH = 79%]
Pressure (altimeter): 29.76 inches Hg (1008.0 mb)
Winds: from the N (10 degrees) at 8 MPH (7 knots; 3.6 m/s)
Visibility: 6 or more miles (10+ km)
Ceiling: at least 12,000 feet AGL
Clouds: scattered clouds at 1500 feet AGL
Weather: no significant weather observed at this time

METAR text: WAOO 280500Z 01005KT 330V050 9999 SCT015 30/25 Q1009
Conditions at: WAOO (SYAMSUDIN NOOR , ID) observed 0500 UTC 28 November 2020
Temperature: 30.0°C (86°F)
Dewpoint: 25.0°C (77°F) [RH = 75%]
Pressure (altimeter): 29.79 inches Hg (1009.0 mb)
Winds: from the N (10 degrees) at 6 MPH (5 knots; 2.6 m/s)
Visibility: 6 or more miles (10+ km)
Ceiling: at least 12,000 feet AGL
Clouds: scattered clouds at 1500 feet AGL
Weather: no significant weather observed at this time

METAR text: WAOO 280430Z 35005KT 320V050 9999 SCT015 29/25 Q1009
Conditions at: WAOO (SYAMSUDIN NOOR , ID) observed 0430 UTC 28 November 2020
Temperature: 29.0°C (84°F)
Dewpoint: 25.0°C (77°F) [RH = 79%]
Pressure (altimeter): 29.79 inches Hg (1009.0 mb)
Winds: from the N (350 degrees) at 6 MPH (5 knots; 2.6 m/s)
Visibility: 6 or more miles (10+ km)
Ceiling: at least 12,000 feet AGL
Clouds: scattered clouds at 1500 feet AGL
Weather: no significant weather observed at this time

METAR text: WAOO 280400Z 02004KT 340V080 9999 SCT015 29/25 Q1010
Conditions at: WAOO (SYAMSUDIN NOOR , ID) observed 0400 UTC 28 November 2020
Temperature: 29.0°C (84°F)
Dewpoint: 25.0°C (77°F) [RH = 79%]
Pressure (altimeter): 29.82 inches Hg (1010.0 mb)
Winds: from the NNE (20 degrees) at 5 MPH (4 knots; 2.1 m/s)
Visibility: 6 or more miles (10+ km)
Ceiling: at least 12,000 feet AGL
Clouds: scattered clouds at 1500 feet AGL
Weather: no significant weather observed at this time

METAR text: WAOO 280330Z 02005KT 340V060 9999 SCT015 29/25 Q1010
Conditions at: WAOO (SYAMSUDIN NOOR , ID) observed 0330 UTC 28 November 2020
Temperature: 29.0°C (84°F)
Dewpoint: 25.0°C (77°F) [RH = 79%]
Pressure (altimeter): 29.82 inches Hg (1010.0 mb)
Winds: from the NNE (20 degrees) at 6 MPH (5 knots; 2.6 m/s)
Visibility: 6 or more miles (10+ km)
Ceiling: at least 12,000 feet AGL
Clouds: scattered clouds at 1500 feet AGL
Weather: no significant weather observed at this time

METAR text: WAOO 280300Z VRB02KT 9999 SCT016 29/25 Q1011
Conditions at: WAOO (SYAMSUDIN NOOR , ID) observed 0300 UTC 28 November 2020
Temperature: 29.0°C (84°F)
Dewpoint: 25.0°C (77°F) [RH = 79%]
Pressure (altimeter): 29.85 inches Hg (1011.0 mb)
Winds: variable direction winds at 2 MPH (2 knots; 1.0 m/s)
Visibility: 6 or more miles (10+ km)
Ceiling: at least 12,000 feet AGL
Clouds: scattered clouds at 1600 feet AGL
Weather: no significant weather observed at this time

METAR text: WAOO 280230Z 04003KT 360V060 RA FEW012 27/25 Q1011
Conditions at: WAOO (SYAMSUDIN NOOR , ID) observed 0230 UTC 28 November 2020
Temperature: 27.0°C (81°F)
Dewpoint: 25.0°C (77°F) [RH = 89%]
Pressure (altimeter): 29.85 inches Hg (1011.0 mb)
Winds: from the NE (40 degrees) at 3 MPH (3 knots; 1.5 m/s)
Visibility: missing
Ceiling: at least 12,000 feet AGL
Clouds: few clouds at 1200 feet AGL
Weather: RA  (moderate rain)

METAR text: WAOO 280100Z 28001KT 9999 FEW010 26/25 Q1011
Conditions at: WAOO (SYAMSUDIN NOOR , ID) observed 0100 UTC 28 November 2020
Temperature: 26.0°C (79°F)
Dewpoint: 25.0°C (77°F) [RH = 94%]
Pressure (altimeter): 29.85 inches Hg (1011.0 mb)
Winds: from the W (280 degrees) at 1 MPH (1 knots; 0.5 m/s)
Visibility: 6 or more miles (10+ km)
Ceiling: at least 12,000 feet AGL
Clouds: few clouds at 1000 feet AGL
Weather: no significant weather observed at this time

METAR text: WAOO 280030Z VRB02KT 8000 FEW011 25/25 Q1011
Conditions at: WAOO (SYAMSUDIN NOOR , ID) observed 0030 UTC 28 November 2020
Temperature: 25.0°C (77°F)
Dewpoint: 25.0°C (77°F) [RH = 100%]
Pressure (altimeter): 29.85 inches Hg (1011.0 mb)
Winds: variable direction winds at 2 MPH (2 knots; 1.0 m/s)
Visibility: 5 miles ( 8 km)
Ceiling: at least 12,000 feet AGL
Clouds: few clouds at 1100 feet AGL
Weather: no significant weather observed at this time

METAR text: WAOO 280000Z 25004KT 220V280 9999 SCT011 25/25 Q1011
Conditions at: WAOO (SYAMSUDIN NOOR , ID) observed 0000 UTC 28 November 2020
Temperature: 25.0°C (77°F)
Dewpoint: 25.0°C (77°F) [RH = 100%]
Pressure (altimeter): 29.85 inches Hg (1011.0 mb)
Winds: from the WSW (250 degrees) at 5 MPH (4 knots; 2.1 m/s)
Visibility: 6 or more miles (10+ km)
Ceiling: at least 12,000 feet AGL
Clouds: scattered clouds at 1100 feet AGL
Weather: no significant weather observed at this time

METAR text: WAOO 272330Z 28003KT 9999 BKN015 25/25 Q1010
Conditions at: WAOO (SYAMSUDIN NOOR , ID) observed 2330 UTC 27 November 2020
Temperature: 25.0°C (77°F)
Dewpoint: 25.0°C (77°F) [RH = 100%]
Pressure (altimeter): 29.82 inches Hg (1010.0 mb)
Winds: from the W (280 degrees) at 3 MPH (3 knots; 1.5 m/s)
Visibility: 6 or more miles (10+ km)
Ceiling: 1500 feet AGL
Clouds: broken clouds at 1500 feet AGL
Weather: no significant weather observed at this time

METAR text: WAOO 272130Z AUTO 35003KT 6000 OVC007 25/25 Q1008
Conditions at: WAOO (SYAMSUDIN NOOR , ID) observed 2130 UTC 27 November 2020
Temperature: 25.0°C (77°F)
Dewpoint: 25.0°C (77°F) [RH = 100%]
Pressure (altimeter): 29.76 inches Hg (1008.0 mb)
Winds: from the N (350 degrees) at 3 MPH (3 knots; 1.5 m/s)
Visibility: 4 miles ( 6 km)
Ceiling: 700 feet AGL
Clouds: overcast cloud deck at 700 feet AGL
Weather: no significant weather observed at this time

METAR text: WAOO 272100Z AUTO 03003KT 3400 BR SCT008 OVC013 25/25 Q1008
Conditions at: WAOO (SYAMSUDIN NOOR , ID) observed 2100 UTC 27 November 2020
Temperature: 25.0°C (77°F)
Dewpoint: 25.0°C (77°F) [RH = 100%]
Pressure (altimeter): 29.76 inches Hg (1008.0 mb)
Winds: from the NNE (30 degrees) at 3 MPH (3 knots; 1.5 m/s)
Visibility: 2.11 miles (3.40 km)
Ceiling: 1300 feet AGL
Clouds: scattered clouds at 800 feet AGL
overcast cloud deck at 1300 feet AGL
Weather: BR  (mist)

METAR text: WAOO 272030Z AUTO 36002KT 4300 BR BKN013 BKN017 OVC150 25/25 Q1008
Conditions at: WAOO (SYAMSUDIN NOOR , ID) observed 2030 UTC 27 November 2020
Temperature: 25.0°C (77°F)
Dewpoint: 25.0°C (77°F) [RH = 100%]
Pressure (altimeter): 29.76 inches Hg (1008.0 mb)
Winds: from the N (360 degrees) at 2 MPH (2 knots; 1.0 m/s)
Visibility: 2.67 miles (4.30 km)
Ceiling: 1300 feet AGL
Clouds: broken clouds at 1300 feet AGL
broken clouds at 1700 feet AGL
overcast cloud deck at 15000 feet AGL
Weather: BR  (mist)

METAR text: WAOO 272000Z AUTO 02002KT 3900 BR BKN013 BKN017 OVC150 25/25 Q1008
Conditions at: WAOO (SYAMSUDIN NOOR , ID) observed 2000 UTC 27 November 2020
Temperature: 25.0°C (77°F)
Dewpoint: 25.0°C (77°F) [RH = 100%]
Pressure (altimeter): 29.76 inches Hg (1008.0 mb)
Winds: from the NNE (20 degrees) at 2 MPH (2 knots; 1.0 m/s)
Visibility: 2.42 miles (3.89 km)
Ceiling: 1300 feet AGL
Clouds: broken clouds at 1300 feet AGL
broken clouds at 1700 feet AGL
overcast cloud deck at 15000 feet AGL
Weather: BR  (mist)

METAR text: WAOO 271900Z AUTO 07002KT 3800 BR OVC110 25/25 Q1008
Conditions at: WAOO (SYAMSUDIN NOOR , ID) observed 1900 UTC 27 November 2020
Temperature: 25.0°C (77°F)
Dewpoint: 25.0°C (77°F) [RH = 100%]
Pressure (altimeter): 29.76 inches Hg (1008.0 mb)
Winds: from the ENE (70 degrees) at 2 MPH (2 knots; 1.0 m/s)
Visibility: 2.36 miles (3.80 km)
Ceiling: 11000 feet AGL
Clouds: overcast cloud deck at 11000 feet AGL
Weather: BR  (mist)

METAR text: WAOO 271830Z AUTO 06001KT 2700 BR OVC110 25/25 Q1008
Conditions at: WAOO (SYAMSUDIN NOOR , ID) observed 1830 UTC 27 November 2020
Temperature: 25.0°C (77°F)
Dewpoint: 25.0°C (77°F) [RH = 100%]
Pressure (altimeter): 29.76 inches Hg (1008.0 mb)
Winds: from the ENE (60 degrees) at 1 MPH (1 knots; 0.5 m/s)
Visibility: 1.68 miles (2.70 km)
Ceiling: 11000 feet AGL
Clouds: overcast cloud deck at 11000 feet AGL
Weather: BR  (mist)

METAR text: WAOO 271800Z AUTO 08002KT 3300 BR SCT100 OVC140 25/25 Q1008
Conditions at: WAOO (SYAMSUDIN NOOR , ID) observed 1800 UTC 27 November 2020
Temperature: 25.0°C (77°F)
Dewpoint: 25.0°C (77°F) [RH = 100%]
Pressure (altimeter): 29.76 inches Hg (1008.0 mb)
Winds: from the E (80 degrees) at 2 MPH (2 knots; 1.0 m/s)
Visibility: 2.05 miles (3.30 km)
Ceiling: 14000 feet AGL
Clouds: scattered clouds at 10000 feet AGL
overcast cloud deck at 14000 feet AGL
Weather: BR  (mist)

METAR text: WAOO 271730Z AUTO 05003KT 3000 BR BKN110 BKN130 OVC150 25/25 Q1009
Conditions at: WAOO (SYAMSUDIN NOOR , ID) observed 1730 UTC 27 November 2020
Temperature: 25.0°C (77°F)
Dewpoint: 25.0°C (77°F) [RH = 100%]
Pressure (altimeter): 29.79 inches Hg (1009.0 mb)
Winds: from the NE (50 degrees) at 3 MPH (3 knots; 1.5 m/s)
Visibility: 1.86 miles (2.99 km)
Ceiling: 11000 feet AGL
Clouds: broken clouds at 11000 feet AGL
broken clouds at 13000 feet AGL
overcast cloud deck at 15000 feet AGL
Weather: BR  (mist)

METAR text: WAOO 271700Z AUTO 04002KT 3500 BR SCT065 SCT110 OVC150 25/25 Q1009
Conditions at: WAOO (SYAMSUDIN NOOR , ID) observed 1700 UTC 27 November 2020
Temperature: 25.0°C (77°F)
Dewpoint: 25.0°C (77°F) [RH = 100%]
Pressure (altimeter): 29.79 inches Hg (1009.0 mb)
Winds: from the NE (40 degrees) at 2 MPH (2 knots; 1.0 m/s)
Visibility: 2.17 miles (3.49 km)
Ceiling: 15000 feet AGL
Clouds: scattered clouds at 6500 feet AGL
scattered clouds at 11000 feet AGL
overcast cloud deck at 15000 feet AGL
Weather: BR  (mist)

METAR text: WAOO 271630Z AUTO 04003KT 6000 BKN150 BKN210 25/25 Q1009
Conditions at: WAOO (SYAMSUDIN NOOR , ID) observed 1630 UTC 27 November 2020
Temperature: 25.0°C (77°F)
Dewpoint: 25.0°C (77°F) [RH = 100%]
Pressure (altimeter): 29.79 inches Hg (1009.0 mb)
Winds: from the NE (40 degrees) at 3 MPH (3 knots; 1.5 m/s)
Visibility: 4 miles ( 6 km)
Ceiling: 15000 feet AGL
Clouds: broken clouds at 15000 feet AGL
broken clouds at 21000 feet AGL
Weather: no significant weather observed at this time

METAR text: WAOO 271600Z AUTO 06003KT 6000 FEW130 BKN160 25/25 Q1010
Conditions at: WAOO (SYAMSUDIN NOOR , ID) observed 1600 UTC 27 November 2020
Temperature: 25.0°C (77°F)
Dewpoint: 25.0°C (77°F) [RH = 100%]
Pressure (altimeter): 29.82 inches Hg (1010.0 mb)
Winds: from the ENE (60 degrees) at 3 MPH (3 knots; 1.5 m/s)
Visibility: 4 miles ( 6 km)
Ceiling: 16000 feet AGL
Clouds: few clouds at 13000 feet AGL
broken clouds at 16000 feet AGL
Weather: no significant weather observed at this time

METAR text: WAOO 271530Z AUTO 04003KT 5000 SCT060 SCT130 BKN170 25/25 Q1010
Conditions at: WAOO (SYAMSUDIN NOOR , ID) observed 1530 UTC 27 November 2020
Temperature: 25.0°C (77°F)
Dewpoint: 25.0°C (77°F) [RH = 100%]
Pressure (altimeter): 29.82 inches Hg (1010.0 mb)
Winds: from the NE (40 degrees) at 3 MPH (3 knots; 1.5 m/s)
Visibility: 3 miles ( 5 km)
Ceiling: 17000 feet AGL
Clouds: scattered clouds at 6000 feet AGL
scattered clouds at 13000 feet AGL
broken clouds at 17000 feet AGL
Weather: no significant weather observed at this time

METAR text: WAOO 271500Z AUTO 06002KT 5000 FEW055 BKN060 OVC170 25/25 Q1010
Conditions at: WAOO (SYAMSUDIN NOOR , ID) observed 1500 UTC 27 November 2020
Temperature: 25.0°C (77°F)
Dewpoint: 25.0°C (77°F) [RH = 100%]
Pressure (altimeter): 29.82 inches Hg (1010.0 mb)
Winds: from the ENE (60 degrees) at 2 MPH (2 knots; 1.0 m/s)
Visibility: 3 miles ( 5 km)
Ceiling: 6000 feet AGL
Clouds: few clouds at 5500 feet AGL
broken clouds at 6000 feet AGL
overcast cloud deck at 17000 feet AGL
Weather: no significant weather observed at this time

Forecast for: WAOO (SYAMSUDIN NOOR , ID)
Text: TAF WAOO 282300Z 2900/2924 31006KT 9000 SCT018
Forecast period: 0000 UTC 29 November 2020 to 0000 UTC 30 November 2020
Forecast type: FROM: standard forecast or significant change
Winds: from the NW (310 degrees) at 7 MPH (6 knots; 3.1 m/s)
Visibility: 6 miles (9 km)
Ceiling: at least 12,000 feet AGL
Clouds: scattered clouds at 1800 feet AGL
Weather: no significant weather forecast for this period
Text: TEMPO 2903/2907 3000 TSRA FEW015CB
Forecast period: 0300 to 0700 UTC 29 November 2020
Forecast type: TEMPORARY: The following changes expected for less than half the time period
Visibility: 1.86 miles (2.99 km)
Ceiling: at least 12,000 feet AGL
Clouds: few clouds at 1500 feet AGL
Weather: TSRA  (rain associated with thunderstorm(s))